sensor_id;sensor_type;location;lat;lon;timestamp;pressure;altitude;pressure_sealevel;temperature;humidity
64876;BME280;51369;49.862;9.908;2023-04-07T00:02:02;98373.47;;;9.49;59.71
64876;BME280;51369;49.862;9.908;2023-04-07T00:04:28;98368.19;;;9.46;59.72
64876;BME280;51369;49.862;9.908;2023-04-07T00:06:53;98363.88;;;9.42;60.25
64876;BME280;51369;49.862;9.908;2023-04-07T00:09:18;98365.81;;;9.38;61.00
64876;BME280;51369;49.862;9.908;2023-04-07T00:11:44;98365.03;;;9.35;61.59
64876;BME280;51369;49.862;9.908;2023-04-07T00:14:09;98363.41;;;9.31;61.79
64876;BME280;51369;49.862;9.908;2023-04-07T00:16:35;98359.94;;;9.27;62.14
64876;BME280;51369;49.862;9.908;2023-04-07T00:19:00;98367.25;;;9.24;62.65
64876;BME280;51369;49.862;9.908;2023-04-07T00:21:26;98362.03;;;9.19;62.82
64876;BME280;51369;49.862;9.908;2023-04-07T00:23:52;98356.81;;;9.14;63.39
64876;BME280;51369;49.862;9.908;2023-04-07T00:26:17;98365.03;;;9.11;63.84
64876;BME280;51369;49.862;9.908;2023-04-07T00:28:43;98358.88;;;9.08;64.18
64876;BME280;51369;49.862;9.908;2023-04-07T00:31:08;98367.94;;;9.05;64.83
64876;BME280;51369;49.862;9.908;2023-04-07T00:33:34;98366.28;;;9.01;65.63
64876;BME280;51369;49.862;9.908;2023-04-07T00:35:59;98363.81;;;8.95;65.34
64876;BME280;51369;49.862;9.908;2023-04-07T00:38:25;98354.91;;;8.93;66.23
64876;BME280;51369;49.862;9.908;2023-04-07T00:40:57;98361.41;;;8.88;66.48
64876;BME280;51369;49.862;9.908;2023-04-07T00:43:23;98359.66;;;8.87;67.06
64876;BME280;51369;49.862;9.908;2023-04-07T00:45:49;98352.50;;;8.86;66.29
64876;BME280;51369;49.862;9.908;2023-04-07T00:48:14;98354.50;;;8.80;66.94
64876;BME280;51369;49.862;9.908;2023-04-07T00:50:40;98347.44;;;8.76;68.07
64876;BME280;51369;49.862;9.908;2023-04-07T00:53:05;98333.22;;;8.73;68.51
64876;BME280;51369;49.862;9.908;2023-04-07T00:55:31;98336.97;;;8.69;68.47
64876;BME280;51369;49.862;9.908;2023-04-07T00:57:57;98337.97;;;8.66;68.45
64876;BME280;51369;49.862;9.908;2023-04-07T01:00:23;98337.28;;;8.61;68.77
64876;BME280;51369;49.862;9.908;2023-04-07T01:02:51;98333.81;;;8.58;69.03
64876;BME280;51369;49.862;9.908;2023-04-07T01:05:45;98333.09;;;8.53;69.26
64876;BME280;51369;49.862;9.908;2023-04-07T01:08:52;98327.91;;;8.46;69.88
64876;BME280;51369;49.862;9.908;2023-04-07T01:11:24;98328.81;;;8.47;69.89
64876;BME280;51369;49.862;9.908;2023-04-07T01:13:53;98322.53;;;8.46;70.23
64876;BME280;51369;49.862;9.908;2023-04-07T01:16:48;98322.66;;;8.43;70.67
64876;BME280;51369;49.862;9.908;2023-04-07T01:21:56;98316.59;;;8.37;70.74
64876;BME280;51369;49.862;9.908;2023-04-07T01:27:28;98313.38;;;8.26;70.75
64876;BME280;51369;49.862;9.908;2023-04-07T01:30:00;98316.13;;;8.24;71.13
64876;BME280;51369;49.862;9.908;2023-04-07T01:32:28;98313.53;;;8.21;71.11
64876;BME280;51369;49.862;9.908;2023-04-07T01:34:56;98307.31;;;8.19;71.63
64876;BME280;51369;49.862;9.908;2023-04-07T01:37:23;98309.19;;;8.17;72.09
64876;BME280;51369;49.862;9.908;2023-04-07T01:39:50;98311.03;;;8.15;71.99
64876;BME280;51369;49.862;9.908;2023-04-07T01:42:17;98303.97;;;8.12;71.86
64876;BME280;51369;49.862;9.908;2023-04-07T01:44:43;98305.81;;;8.10;71.82
64876;BME280;51369;49.862;9.908;2023-04-07T01:47:10;98299.72;;;8.05;72.10
64876;BME280;51369;49.862;9.908;2023-04-07T01:49:36;98306.03;;;8.04;72.71
64876;BME280;51369;49.862;9.908;2023-04-07T01:52:03;98302.47;;;8.04;72.94
64876;BME280;51369;49.862;9.908;2023-04-07T01:54:29;98300.72;;;8.03;73.61
64876;BME280;51369;49.862;9.908;2023-04-07T01:56:55;98300.75;;;8.01;73.87
64876;BME280;51369;49.862;9.908;2023-04-07T01:59:21;98302.56;;;8.01;73.94
64876;BME280;51369;49.862;9.908;2023-04-07T02:01:47;98293.56;;;8.02;74.22
64876;BME280;51369;49.862;9.908;2023-04-07T02:04:28;98291.72;;;8.04;74.71
64876;BME280;51369;49.862;9.908;2023-04-07T02:07:00;98297.97;;;8.04;74.87
64876;BME280;51369;49.862;9.908;2023-04-07T02:09:37;98295.22;;;8.06;74.77
64876;BME280;51369;49.862;9.908;2023-04-07T02:12:04;98293.47;;;8.05;74.87
64876;BME280;51369;49.862;9.908;2023-04-07T02:14:36;98288.09;;;8.05;75.29
64876;BME280;51369;49.862;9.908;2023-04-07T02:17:06;98291.72;;;8.04;75.32
64876;BME280;51369;49.862;9.908;2023-04-07T02:19:35;98288.19;;;8.02;75.02
64876;BME280;51369;49.862;9.908;2023-04-07T02:22:04;98286.50;;;7.99;74.78
64876;BME280;51369;49.862;9.908;2023-04-07T02:24:31;98277.53;;;7.99;74.85
64876;BME280;51369;49.862;9.908;2023-04-07T02:26:57;98286.53;;;7.98;75.33
64876;BME280;51369;49.862;9.908;2023-04-07T02:29:25;98294.66;;;7.96;75.56
64876;BME280;51369;49.862;9.908;2023-04-07T02:31:51;98284.88;;;7.94;74.87
64876;BME280;51369;49.862;9.908;2023-04-07T02:34:16;98281.38;;;7.92;75.44
64876;BME280;51369;49.862;9.908;2023-04-07T02:36:41;98272.44;;;7.91;75.00
64876;BME280;51369;49.862;9.908;2023-04-07T02:39:08;98270.66;;;7.90;74.36
64876;BME280;51369;49.862;9.908;2023-04-07T02:41:34;98278.78;;;7.89;75.24
64876;BME280;51369;49.862;9.908;2023-04-07T02:44:00;98267.22;;;7.87;75.24
64876;BME280;51369;49.862;9.908;2023-04-07T02:46:25;98266.31;;;7.86;75.44
64876;BME280;51369;49.862;9.908;2023-04-07T02:48:51;98269.00;;;7.86;75.08
64876;BME280;51369;49.862;9.908;2023-04-07T02:51:16;98272.69;;;7.83;75.14
64876;BME280;51369;49.862;9.908;2023-04-07T02:53:42;98268.25;;;7.82;75.14
64876;BME280;51369;49.862;9.908;2023-04-07T02:56:08;98262.91;;;7.81;75.62
64876;BME280;51369;49.862;9.908;2023-04-07T02:58:34;98269.22;;;7.80;75.50
64876;BME280;51369;49.862;9.908;2023-04-07T03:01:00;98259.44;;;7.77;75.87
64876;BME280;51369;49.862;9.908;2023-04-07T03:03:28;98261.25;;;7.77;76.01
64876;BME280;51369;49.862;9.908;2023-04-07T03:06:02;98263.06;;;7.76;75.87
64876;BME280;51369;49.862;9.908;2023-04-07T03:08:29;98256.91;;;7.73;75.86
64876;BME280;51369;49.862;9.908;2023-04-07T03:10:55;98255.09;;;7.73;75.98
64876;BME280;51369;49.862;9.908;2023-04-07T03:13:26;98256.03;;;7.72;75.77
64876;BME280;51369;49.862;9.908;2023-04-07T03:15:53;98248.91;;;7.71;75.80
64876;BME280;51369;49.862;9.908;2023-04-07T03:18:19;98251.59;;;7.71;75.86
64876;BME280;51369;49.862;9.908;2023-04-07T03:23:24;98251.69;;;7.68;76.25
64876;BME280;51369;49.862;9.908;2023-04-07T03:25:50;98239.19;;;7.67;75.35
64876;BME280;51369;49.862;9.908;2023-04-07T03:28:16;98252.63;;;7.67;75.66
64876;BME280;51369;49.862;9.908;2023-04-07T03:30:41;98237.38;;;7.68;75.81
64876;BME280;51369;49.862;9.908;2023-04-07T03:33:07;98237.44;;;7.66;75.62
64876;BME280;51369;49.862;9.908;2023-04-07T03:35:33;98234.75;;;7.66;75.84
64876;BME280;51369;49.862;9.908;2023-04-07T03:37:58;98241.91;;;7.66;75.85
64876;BME280;51369;49.862;9.908;2023-04-07T03:40:24;98240.16;;;7.65;75.84
64876;BME280;51369;49.862;9.908;2023-04-07T03:42:50;98237.47;;;7.65;76.07
64876;BME280;51369;49.862;9.908;2023-04-07T03:45:15;98238.34;;;7.65;75.76
64876;BME280;51369;49.862;9.908;2023-04-07T03:47:47;98225.84;;;7.64;76.05
64876;BME280;51369;49.862;9.908;2023-04-07T03:50:14;98229.41;;;7.65;75.67
64876;BME280;51369;49.862;9.908;2023-04-07T03:52:49;98232.09;;;7.65;75.89
64876;BME280;51369;49.862;9.908;2023-04-07T03:55:24;98230.34;;;7.64;75.95
64876;BME280;51369;49.862;9.908;2023-04-07T03:57:54;98233.03;;;7.64;76.34
64876;BME280;51369;49.862;9.908;2023-04-07T04:00:21;98228.63;;;7.61;76.06
64876;BME280;51369;49.862;9.908;2023-04-07T04:03:01;98222.38;;;7.61;75.75
64876;BME280;51369;49.862;9.908;2023-04-07T04:05:27;98226.88;;;7.60;76.10
64876;BME280;51369;49.862;9.908;2023-04-07T04:07:52;98226.88;;;7.60;76.41
64876;BME280;51369;49.862;9.908;2023-04-07T04:10:20;98225.13;;;7.59;76.25
64876;BME280;51369;49.862;9.908;2023-04-07T04:12:48;98235.88;;;7.59;76.44
64876;BME280;51369;49.862;9.908;2023-04-07T04:15:14;98225.19;;;7.58;76.32
64876;BME280;51369;49.862;9.908;2023-04-07T04:17:41;98229.66;;;7.57;76.85
64876;BME280;51369;49.862;9.908;2023-04-07T04:20:07;98229.66;;;7.57;76.26
64876;BME280;51369;49.862;9.908;2023-04-07T04:22:46;98227.03;;;7.56;76.31
64876;BME280;51369;49.862;9.908;2023-04-07T04:25:11;98226.16;;;7.55;76.97
64876;BME280;51369;49.862;9.908;2023-04-07T04:27:39;98220.84;;;7.54;76.89
64876;BME280;51369;49.862;9.908;2023-04-07T04:30:13;98218.19;;;7.52;76.83
64876;BME280;51369;49.862;9.908;2023-04-07T04:32:46;98223.63;;;7.50;76.64
64876;BME280;51369;49.862;9.908;2023-04-07T04:35:12;98227.19;;;7.51;76.70
64876;BME280;51369;49.862;9.908;2023-04-07T04:37:48;98226.31;;;7.50;77.02
64876;BME280;51369;49.862;9.908;2023-04-07T04:40:13;98222.75;;;7.50;76.98
64876;BME280;51369;49.862;9.908;2023-04-07T04:42:39;98218.31;;;7.49;77.20
64876;BME280;51369;49.862;9.908;2023-04-07T04:45:07;98220.09;;;7.48;76.95
64876;BME280;51369;49.862;9.908;2023-04-07T04:47:33;98218.31;;;7.49;77.39
64876;BME280;51369;49.862;9.908;2023-04-07T04:50:01;98220.97;;;7.49;77.36
64876;BME280;51369;49.862;9.908;2023-04-07T04:52:27;98220.97;;;7.49;77.28
64876;BME280;51369;49.862;9.908;2023-04-07T04:54:53;98227.28;;;7.48;77.36
64876;BME280;51369;49.862;9.908;2023-04-07T04:57:19;98229.09;;;7.47;77.28
64876;BME280;51369;49.862;9.908;2023-04-07T04:59:45;98227.28;;;7.48;76.94
64876;BME280;51369;49.862;9.908;2023-04-07T05:02:10;98227.28;;;7.48;77.70
64876;BME280;51369;49.862;9.908;2023-04-07T05:04:36;98218.34;;;7.47;77.66
64876;BME280;51369;49.862;9.908;2023-04-07T05:07:16;98221.03;;;7.47;77.57
64876;BME280;51369;49.862;9.908;2023-04-07T05:09:41;98225.53;;;7.47;77.29
64876;BME280;51369;49.862;9.908;2023-04-07T05:12:07;98227.28;;;7.48;77.30
64876;BME280;51369;49.862;9.908;2023-04-07T05:14:38;98221.91;;;7.48;77.44
64876;BME280;51369;49.862;9.908;2023-04-07T05:17:06;98222.78;;;7.48;77.33
64876;BME280;51369;49.862;9.908;2023-04-07T05:19:32;98225.44;;;7.50;77.48
64876;BME280;51369;49.862;9.908;2023-04-07T05:22:03;98218.25;;;7.50;77.16
64876;BME280;51369;49.862;9.908;2023-04-07T05:24:33;98221.81;;;7.51;77.64
64876;BME280;51369;49.862;9.908;2023-04-07T05:26:59;98217.31;;;7.51;77.18
64876;BME280;51369;49.862;9.908;2023-04-07T05:29:26;98225.31;;;7.53;77.19
64876;BME280;51369;49.862;9.908;2023-04-07T05:31:52;98225.28;;;7.55;77.61
64876;BME280;51369;49.862;9.908;2023-04-07T05:34:20;98220.72;;;7.57;77.17
64876;BME280;51369;49.862;9.908;2023-04-07T05:36:51;98223.38;;;7.58;77.37
64876;BME280;51369;49.862;9.908;2023-04-07T05:39:16;98224.19;;;7.60;77.58
64876;BME280;51369;49.862;9.908;2023-04-07T05:41:43;98223.16;;;7.64;77.83
64876;BME280;51369;49.862;9.908;2023-04-07T05:44:09;98223.06;;;7.67;77.83
64876;BME280;51369;49.862;9.908;2023-04-07T05:46:38;98223.88;;;7.69;77.92
64876;BME280;51369;49.862;9.908;2023-04-07T05:49:04;98224.72;;;7.71;77.98
64876;BME280;51369;49.862;9.908;2023-04-07T05:51:30;98232.72;;;7.73;77.82
64876;BME280;51369;49.862;9.908;2023-04-07T05:54:00;98228.19;;;7.75;77.79
64876;BME280;51369;49.862;9.908;2023-04-07T05:56:27;98233.50;;;7.76;77.57
64876;BME280;51369;49.862;9.908;2023-04-07T05:58:53;98232.53;;;7.79;77.39
64876;BME280;51369;49.862;9.908;2023-04-07T06:01:18;98234.22;;;7.81;77.59
64876;BME280;51369;49.862;9.908;2023-04-07T06:03:46;98235.09;;;7.82;77.56
64876;BME280;51369;49.862;9.908;2023-04-07T06:06:15;98228.75;;;7.84;77.65
64876;BME280;51369;49.862;9.908;2023-04-07T06:08:40;98238.50;;;7.87;77.43
64876;BME280;51369;49.862;9.908;2023-04-07T06:11:06;98238.47;;;7.89;77.83
64876;BME280;51369;49.862;9.908;2023-04-07T06:13:32;98243.72;;;7.92;77.35
64876;BME280;51369;49.862;9.908;2023-04-07T06:15:58;98240.13;;;7.93;77.55
64876;BME280;51369;49.862;9.908;2023-04-07T06:18:24;98240.06;;;7.94;77.48
64876;BME280;51369;49.862;9.908;2023-04-07T06:20:49;98236.50;;;7.94;77.27
64876;BME280;51369;49.862;9.908;2023-04-07T06:23:14;98240.00;;;7.96;77.21
64876;BME280;51369;49.862;9.908;2023-04-07T06:25:40;98225.63;;;7.97;77.28
64876;BME280;51369;49.862;9.908;2023-04-07T06:28:05;98236.34;;;7.98;77.18
64876;BME280;51369;49.862;9.908;2023-04-07T06:30:31;98230.84;;;8.01;76.84
64876;BME280;51369;49.862;9.908;2023-04-07T06:32:57;98234.41;;;8.02;76.95
64876;BME280;51369;49.862;9.908;2023-04-07T06:35:23;98238.91;;;8.01;76.30
64876;BME280;51369;49.862;9.908;2023-04-07T06:37:51;98241.56;;;8.03;76.39
64876;BME280;51369;49.862;9.908;2023-04-07T06:40:16;98238.81;;;8.04;76.41
64876;BME280;51369;49.862;9.908;2023-04-07T06:42:41;98238.72;;;8.07;76.54
64876;BME280;51369;49.862;9.908;2023-04-07T06:45:30;98237.72;;;8.10;76.55
64876;BME280;51369;49.862;9.908;2023-04-07T06:47:55;98241.19;;;8.13;76.03
64876;BME280;51369;49.862;9.908;2023-04-07T06:50:21;98235.69;;;8.16;76.22
64876;BME280;51369;49.862;9.908;2023-04-07T06:52:47;98240.03;;;8.21;76.53
64876;BME280;51369;49.862;9.908;2023-04-07T06:55:12;98229.16;;;8.24;76.13
64876;BME280;51369;49.862;9.908;2023-04-07T06:57:38;98230.88;;;8.26;75.31
64876;BME280;51369;49.862;9.908;2023-04-07T07:00:04;98228.06;;;8.29;75.90
64876;BME280;51369;49.862;9.908;2023-04-07T07:02:32;98231.56;;;8.33;76.38
64876;BME280;51369;49.862;9.908;2023-04-07T07:04:58;98226.06;;;8.36;76.37
64876;BME280;51369;49.862;9.908;2023-04-07T07:07:24;98221.50;;;8.38;76.03
64876;BME280;51369;49.862;9.908;2023-04-07T07:09:50;98216.91;;;8.41;76.41
64876;BME280;51369;49.862;9.908;2023-04-07T07:12:16;98224.81;;;8.46;76.47
64876;BME280;51369;49.862;9.908;2023-04-07T07:14:42;98223.75;;;8.50;75.91
64876;BME280;51369;49.862;9.908;2023-04-07T07:17:08;98221.88;;;8.52;75.33
64876;BME280;51369;49.862;9.908;2023-04-07T07:19:33;98228.03;;;8.56;75.18
64876;BME280;51369;49.862;9.908;2023-04-07T07:22:00;98228.84;;;8.58;75.22
64876;BME280;51369;49.862;9.908;2023-04-07T07:24:26;98227.03;;;8.58;74.65
64876;BME280;51369;49.862;9.908;2023-04-07T07:26:53;98234.06;;;8.62;75.96
64876;BME280;51369;49.862;9.908;2023-04-07T07:29:19;98232.19;;;8.64;75.60
64876;BME280;51369;49.862;9.908;2023-04-07T07:31:44;98239.25;;;8.67;75.57
64876;BME280;51369;49.862;9.908;2023-04-07T07:34:10;98241.00;;;8.68;75.61
64876;BME280;51369;49.862;9.908;2023-04-07T07:36:35;98234.56;;;8.72;75.42
64876;BME280;51369;49.862;9.908;2023-04-07T07:39:01;98242.47;;;8.76;75.81
64876;BME280;51369;49.862;9.908;2023-04-07T07:41:26;98234.28;;;8.79;76.06
64876;BME280;51369;49.862;9.908;2023-04-07T07:43:51;98242.19;;;8.84;75.87
64876;BME280;51369;49.862;9.908;2023-04-07T07:46:17;98244.69;;;8.89;76.67
64876;BME280;51369;49.862;9.908;2023-04-07T07:48:42;98244.53;;;8.93;76.35
64876;BME280;51369;49.862;9.908;2023-04-07T07:51:08;98250.63;;;8.98;76.58
64876;BME280;51369;49.862;9.908;2023-04-07T07:53:33;98240.53;;;9.03;75.70
64876;BME280;51369;49.862;9.908;2023-04-07T07:55:59;98242.31;;;9.04;75.78
64876;BME280;51369;49.862;9.908;2023-04-07T07:58:25;98235.91;;;9.07;74.82
64876;BME280;51369;49.862;9.908;2023-04-07T08:00:50;98239.44;;;9.09;75.17
64876;BME280;51369;49.862;9.908;2023-04-07T08:03:16;98243.69;;;9.14;74.20
64876;BME280;51369;49.862;9.908;2023-04-07T08:05:41;98248.97;;;9.18;74.13
64876;BME280;51369;49.862;9.908;2023-04-07T08:08:08;98246.28;;;9.18;73.74
64876;BME280;51369;49.862;9.908;2023-04-07T08:10:33;98248.91;;;9.19;73.95
64876;BME280;51369;49.862;9.908;2023-04-07T08:12:59;98253.28;;;9.22;74.13
64876;BME280;51369;49.862;9.908;2023-04-07T08:15:24;98258.50;;;9.26;74.42
64876;BME280;51369;49.862;9.908;2023-04-07T08:17:49;98249.44;;;9.29;74.80
64876;BME280;51369;49.862;9.908;2023-04-07T08:20:15;98259.13;;;9.33;75.10
64876;BME280;51369;49.862;9.908;2023-04-07T08:22:40;98260.78;;;9.37;75.59
64876;BME280;51369;49.862;9.908;2023-04-07T08:25:07;98264.09;;;9.43;74.70
64876;BME280;51369;49.862;9.908;2023-04-07T08:27:32;98260.22;;;9.51;74.70
64876;BME280;51369;49.862;9.908;2023-04-07T08:30:00;98260.03;;;9.55;74.52
64876;BME280;51369;49.862;9.908;2023-04-07T08:32:42;98262.50;;;9.61;74.67
64876;BME280;51369;49.862;9.908;2023-04-07T08:35:08;98264.81;;;9.70;74.60
64876;BME280;51369;49.862;9.908;2023-04-07T08:37:34;98264.56;;;9.76;73.93
64876;BME280;51369;49.862;9.908;2023-04-07T08:40:00;98259.84;;;9.82;73.35
64876;BME280;51369;49.862;9.908;2023-04-07T08:42:28;98255.97;;;9.89;74.62
64876;BME280;51369;49.862;9.908;2023-04-07T08:45:01;98260.09;;;9.97;74.38
64876;BME280;51369;49.862;9.908;2023-04-07T08:47:29;98264.22;;;10.06;73.69
64876;BME280;51369;49.862;9.908;2023-04-07T08:49:59;98261.31;;;10.10;73.71
64876;BME280;51369;49.862;9.908;2023-04-07T08:52:32;98255.72;;;10.15;72.33
64876;BME280;51369;49.862;9.908;2023-04-07T08:54:59;98268.13;;;10.21;73.50
64876;BME280;51369;49.862;9.908;2023-04-07T08:57:29;98263.41;;;10.26;73.39
64876;BME280;51369;49.862;9.908;2023-04-07T08:59:55;98266.84;;;10.29;72.74
64876;BME280;51369;49.862;9.908;2023-04-07T09:02:22;98263.06;;;10.33;73.07
64876;BME280;51369;49.862;9.908;2023-04-07T09:04:47;98263.13;;;10.32;71.73
64876;BME280;51369;49.862;9.908;2023-04-07T09:07:13;98263.06;;;10.33;73.46
64876;BME280;51369;49.862;9.908;2023-04-07T09:09:38;98265.56;;;10.38;74.08
64876;BME280;51369;49.862;9.908;2023-04-07T09:12:04;98273.28;;;10.46;73.50
64876;BME280;51369;49.862;9.908;2023-04-07T09:14:29;98266.81;;;10.50;73.16
64876;BME280;51369;49.862;9.908;2023-04-07T09:16:55;98270.94;;;10.58;73.07
64876;BME280;51369;49.862;9.908;2023-04-07T09:19:23;98268.69;;;10.68;71.79
64876;BME280;51369;49.862;9.908;2023-04-07T09:21:51;98262.00;;;10.76;71.35
64876;BME280;51369;49.862;9.908;2023-04-07T09:24:34;98261.53;;;10.87;72.33
64876;BME280;51369;49.862;9.908;2023-04-07T09:27:11;98261.63;;;11.04;72.73
64876;BME280;51369;49.862;9.908;2023-04-07T09:29:39;98262.81;;;11.18;71.38
64876;BME280;51369;49.862;9.908;2023-04-07T09:32:04;98265.22;;;11.24;69.84
64876;BME280;51369;49.862;9.908;2023-04-07T09:34:35;98262.22;;;11.30;69.86
64876;BME280;51369;49.862;9.908;2023-04-07T09:37:01;98272.59;;;11.39;69.10
64876;BME280;51369;49.862;9.908;2023-04-07T09:39:27;98256.75;;;11.50;70.39
64876;BME280;51369;49.862;9.908;2023-04-07T09:41:53;98265.06;;;11.64;70.32
64876;BME280;51369;49.862;9.908;2023-04-07T09:44:19;98264.28;;;11.81;70.44
64876;BME280;51369;49.862;9.908;2023-04-07T09:46:50;98267.16;;;11.95;69.82
64876;BME280;51369;49.862;9.908;2023-04-07T09:49:17;98271.97;;;12.08;69.66
64876;BME280;51369;49.862;9.908;2023-04-07T09:54:38;98273.56;;;12.12;68.57
64876;BME280;51369;49.862;9.908;2023-04-07T09:57:06;98262.41;;;12.18;68.53
64876;BME280;51369;49.862;9.908;2023-04-07T09:59:32;98261.38;;;12.20;69.14
64876;BME280;51369;49.862;9.908;2023-04-07T10:01:58;98269.25;;;12.25;67.53
64876;BME280;51369;49.862;9.908;2023-04-07T10:04:25;98256.44;;;12.28;67.75
64876;BME280;51369;49.862;9.908;2023-04-07T10:06:52;98259.84;;;12.32;67.95
64876;BME280;51369;49.862;9.908;2023-04-07T10:09:25;98268.63;;;12.37;67.62
64876;BME280;51369;49.862;9.908;2023-04-07T10:11:52;98257.56;;;12.42;68.10
64876;BME280;51369;49.862;9.908;2023-04-07T10:14:19;98266.56;;;12.42;66.40
64876;BME280;51369;49.862;9.908;2023-04-07T10:16:47;98264.63;;;12.44;66.60
64876;BME280;51369;49.862;9.908;2023-04-07T10:19:13;98268.06;;;12.48;66.99
64876;BME280;51369;49.862;9.908;2023-04-07T10:21:41;98272.53;;;12.49;66.47
64876;BME280;51369;49.862;9.908;2023-04-07T10:24:45;98262.00;;;12.43;65.69
64876;BME280;51369;49.862;9.908;2023-04-07T10:27:22;98260.25;;;12.42;65.68
64876;BME280;51369;49.862;9.908;2023-04-07T10:29:51;98263.91;;;12.41;65.61
64876;BME280;51369;49.862;9.908;2023-04-07T10:32:17;98269.97;;;12.46;65.98
64876;BME280;51369;49.862;9.908;2023-04-07T10:37:21;98267.34;;;12.61;65.87
64876;BME280;51369;49.862;9.908;2023-04-07T10:42:45;98270.69;;;12.66;64.51
64876;BME280;51369;49.862;9.908;2023-04-07T10:45:12;98272.34;;;12.69;65.48
64876;BME280;51369;49.862;9.908;2023-04-07T10:50:23;98273.88;;;12.75;65.88
64876;BME280;51369;49.862;9.908;2023-04-07T10:53:03;98269.88;;;12.82;66.65
64876;BME280;51369;49.862;9.908;2023-04-07T10:58:30;98273.47;;;13.15;64.80
64876;BME280;51369;49.862;9.908;2023-04-07T11:03:21;98260.44;;;13.39;64.49
64876;BME280;51369;49.862;9.908;2023-04-07T11:05:46;98266.91;;;13.52;64.94
64876;BME280;51369;49.862;9.908;2023-04-07T11:08:12;98264.22;;;13.68;64.67
64876;BME280;51369;49.862;9.908;2023-04-07T11:10:37;98260.72;;;13.82;64.05
64876;BME280;51369;49.862;9.908;2023-04-07T11:13:07;98272.50;;;13.96;63.65
64876;BME280;51369;49.862;9.908;2023-04-07T11:15:35;98263.72;;;14.07;64.27
64876;BME280;51369;49.862;9.908;2023-04-07T11:18:14;98271.25;;;14.18;63.50
64876;BME280;51369;49.862;9.908;2023-04-07T11:20:49;98265.97;;;14.30;62.94
64876;BME280;51369;49.862;9.908;2023-04-07T11:23:17;98265.41;;;14.40;62.28
64876;BME280;51369;49.862;9.908;2023-04-07T11:25:45;98258.69;;;14.47;62.23
64876;BME280;51369;49.862;9.908;2023-04-07T11:28:12;98269.59;;;14.61;62.21
64876;BME280;51369;49.862;9.908;2023-04-07T11:30:38;98265.16;;;14.74;61.32
64876;BME280;51369;49.862;9.908;2023-04-07T11:33:04;98269.66;;;14.89;60.42
64876;BME280;51369;49.862;9.908;2023-04-07T11:35:29;98260.81;;;15.00;60.61
64876;BME280;51369;49.862;9.908;2023-04-07T11:37:59;98265.41;;;15.14;60.03
64876;BME280;51369;49.862;9.908;2023-04-07T11:40:35;98269.09;;;15.27;59.02
64876;BME280;51369;49.862;9.908;2023-04-07T11:43:21;98266.09;;;15.32;58.69
64876;BME280;51369;49.862;9.908;2023-04-07T11:46:03;98273.06;;;15.36;58.48
64876;BME280;51369;49.862;9.908;2023-04-07T11:48:30;98270.06;;;15.40;58.08
64876;BME280;51369;49.862;9.908;2023-04-07T11:50:56;98270.25;;;15.37;57.74
64876;BME280;51369;49.862;9.908;2023-04-07T11:53:26;98277.16;;;15.28;58.00
64876;BME280;51369;49.862;9.908;2023-04-07T11:56:12;98276.38;;;15.12;58.11
64876;BME280;51369;49.862;9.908;2023-04-07T11:58:52;98272.56;;;15.01;58.23
64876;BME280;51369;49.862;9.908;2023-04-07T12:01:18;98281.31;;;14.91;58.28
64876;BME280;51369;49.862;9.908;2023-04-07T12:04:01;98273.22;;;14.76;58.43
64876;BME280;51369;49.862;9.908;2023-04-07T12:06:34;98274.66;;;14.67;58.95
64876;BME280;51369;49.862;9.908;2023-04-07T12:09:03;98284.81;;;14.63;59.33
64876;BME280;51369;49.862;9.908;2023-04-07T12:11:30;98278.19;;;14.53;59.17
64876;BME280;51369;49.862;9.908;2023-04-07T12:13:56;98281.19;;;14.49;59.56
64876;BME280;51369;49.862;9.908;2023-04-07T12:16:22;98286.91;;;14.44;59.58
64876;BME280;51369;49.862;9.908;2023-04-07T12:18:49;98278.22;;;14.38;58.65
64876;BME280;51369;49.862;9.908;2023-04-07T12:21:16;98282.25;;;14.30;58.49
64876;BME280;51369;49.862;9.908;2023-04-07T12:23:41;98277.00;;;14.27;59.22
64876;BME280;51369;49.862;9.908;2023-04-07T12:26:07;98281.66;;;14.25;59.08
64876;BME280;51369;49.862;9.908;2023-04-07T12:28:32;98281.75;;;14.24;59.70
64876;BME280;51369;49.862;9.908;2023-04-07T12:30:58;98282.53;;;14.26;60.04
64876;BME280;51369;49.862;9.908;2023-04-07T12:33:23;98281.56;;;14.27;59.56
64876;BME280;51369;49.862;9.908;2023-04-07T12:35:49;98283.22;;;14.29;58.82
64876;BME280;51369;49.862;9.908;2023-04-07T12:38:14;98277.69;;;14.31;58.29
64876;BME280;51369;49.862;9.908;2023-04-07T12:40:40;98269.97;;;14.39;59.15
64876;BME280;51369;49.862;9.908;2023-04-07T12:43:06;98261.38;;;14.47;58.18
64876;BME280;51369;49.862;9.908;2023-04-07T12:45:31;98262.50;;;14.58;58.89
64876;BME280;51369;49.862;9.908;2023-04-07T12:47:58;98269.13;;;14.69;57.83
64876;BME280;51369;49.862;9.908;2023-04-07T12:50:23;98261.38;;;14.77;57.07
64876;BME280;51369;49.862;9.908;2023-04-07T12:52:53;98263.13;;;14.78;56.11
64876;BME280;51369;49.862;9.908;2023-04-07T12:55:19;98260.91;;;14.84;57.24
64876;BME280;51369;49.862;9.908;2023-04-07T12:57:44;98259.25;;;14.96;56.53
64876;BME280;51369;49.862;9.908;2023-04-07T13:00:11;98262.97;;;15.09;57.41
64876;BME280;51369;49.862;9.908;2023-04-07T13:02:36;98259.47;;;15.21;56.39
64876;BME280;51369;49.862;9.908;2023-04-07T13:05:02;98263.38;;;15.32;56.84
64876;BME280;51369;49.862;9.908;2023-04-07T13:07:29;98257.13;;;15.44;56.60
64876;BME280;51369;49.862;9.908;2023-04-07T13:09:55;98261.31;;;15.49;55.90
64876;BME280;51369;49.862;9.908;2023-04-07T13:12:22;98258.19;;;15.55;55.22
64876;BME280;51369;49.862;9.908;2023-04-07T13:14:48;98258.78;;;15.60;55.94
64876;BME280;51369;49.862;9.908;2023-04-07T13:17:14;98255.56;;;15.68;55.77
64876;BME280;51369;49.862;9.908;2023-04-07T13:19:39;98257.78;;;15.76;54.73
64876;BME280;51369;49.862;9.908;2023-04-07T13:22:05;98257.28;;;15.83;54.69
64876;BME280;51369;49.862;9.908;2023-04-07T13:24:30;98260.00;;;15.83;54.41
64876;BME280;51369;49.862;9.908;2023-04-07T13:26:56;98250.94;;;15.83;54.78
64876;BME280;51369;49.862;9.908;2023-04-07T13:29:22;98250.94;;;15.83;54.35
64876;BME280;51369;49.862;9.908;2023-04-07T13:31:48;98254.03;;;15.91;55.41
64876;BME280;51369;49.862;9.908;2023-04-07T13:34:14;98244.19;;;16.03;55.34
64876;BME280;51369;49.862;9.908;2023-04-07T13:36:40;98252.50;;;16.14;54.76